Time;durP1;ratioP1;P1;durP2;ratioP2;P2;SDS_P1;SDS_P2;PMS_P1;PMS_P2;Temp;Humidity;BMP_temperature;BMP_pressure;BME280_temperature;BME280_humidity;BME280_pressure;Samples;Min_cycle;Max_cycle;Signal;HPM_P1;HPM_P2
2020/12/08 00:02:13;;;;;;;0.87;0.87;;;5.00;97.40;;;;;;4947887;28;20185;-63
2020/12/08 00:04:41;;;;;;;1.93;1.13;;;5.00;97.30;;;;;;4955519;28;20185;-62
2020/12/08 00:07:07;;;;;;;2.00;1.10;;;5.00;97.00;;;;;;4960935;28;20218;-63
2020/12/08 00:09:33;;;;;;;1.70;0.80;;;5.00;97.20;;;;;;4941355;28;20713;-63
2020/12/08 00:11:59;;;;;;;1.10;0.73;;;5.00;97.30;;;;;;4937978;29;20191;-61
2020/12/08 00:14:25;;;;;;;1.20;1.07;;;5.00;97.30;;;;;;4952969;28;20384;-62
2020/12/08 00:16:51;;;;;;;1.60;1.50;;;5.00;97.20;;;;;;4951240;28;20214;-63
2020/12/08 00:19:16;;;;;;;1.07;1.07;;;5.00;97.30;;;;;;4955886;28;20182;-63
2020/12/08 00:21:43;;;;;;;1.37;1.37;;;5.00;97.30;;;;;;4957119;28;20189;-62
2020/12/08 00:24:09;;;;;;;1.70;1.60;;;5.00;97.30;;;;;;4960218;28;20214;-62
2020/12/08 00:26:39;;;;;;;1.53;1.43;;;5.00;97.20;;;;;;4948414;28;20206;-62
2020/12/08 00:29:06;;;;;;;2.23;2.13;;;5.00;96.80;;;;;;4934243;28;20859;-62
2020/12/08 00:31:32;;;;;;;2.07;1.97;;;4.90;96.70;;;;;;4962535;28;20174;-62
2020/12/08 00:33:58;;;;;;;1.83;1.80;;;4.90;96.60;;;;;;4959577;28;20357;-62
2020/12/08 00:36:24;;;;;;;2.10;1.90;;;4.80;96.50;;;;;;4937497;29;20199;-62
2020/12/08 00:38:50;;;;;;;1.87;1.77;;;4.80;96.60;;;;;;4956742;28;20192;-62
2020/12/08 00:41:21;;;;;;;1.90;1.80;;;4.80;96.70;;;;;;4960220;28;20734;-62
2020/12/08 00:43:49;;;;;;;1.57;1.53;;;4.80;96.80;;;;;;4959672;28;20175;-62
2020/12/08 00:46:20;;;;;;;1.47;1.47;;;4.80;96.80;;;;;;4939600;28;20187;-61
2020/12/08 00:48:47;;;;;;;1.90;1.80;;;4.70;96.70;;;;;;4936420;28;20269;-62
2020/12/08 00:51:13;;;;;;;2.07;1.97;;;4.80;97.00;;;;;;4960394;28;20190;-62
2020/12/08 00:53:39;;;;;;;1.47;1.47;;;4.80;97.30;;;;;;4960298;28;20183;-61
2020/12/08 00:56:09;;;;;;;2.23;2.03;;;4.80;97.30;;;;;;4950088;28;20250;-61
2020/12/08 00:58:35;;;;;;;1.93;1.87;;;4.90;97.40;;;;;;4943382;28;20274;-62
2020/12/08 01:01:02;;;;;;;3.13;2.07;;;4.90;97.40;;;;;;4954520;28;20207;-62
2020/12/08 01:03:28;;;;;;;2.10;2.00;;;4.90;97.40;;;;;;4958370;28;20179;-62
2020/12/08 01:05:54;;;;;;;2.53;2.33;;;4.90;97.40;;;;;;4951801;28;20185;-62
2020/12/08 01:08:19;;;;;;;2.00;2.00;;;4.90;97.40;;;;;;4965711;28;20178;-61
2020/12/08 01:10:45;;;;;;;2.10;2.00;;;5.00;97.50;;;;;;4956530;28;20231;-61
2020/12/08 01:13:11;;;;;;;2.40;2.20;;;5.00;97.40;;;;;;4931182;28;20764;-62
2020/12/08 01:15:37;;;;;;;2.20;2.10;;;5.00;97.50;;;;;;4933048;29;20210;-62
2020/12/08 01:18:02;;;;;;;2.73;2.53;;;5.00;97.50;;;;;;4962525;28;20623;-61
2020/12/08 01:20:28;;;;;;;1.83;1.83;;;5.00;97.60;;;;;;4960459;28;20591;-62
2020/12/08 01:22:54;;;;;;;2.20;2.00;;;5.00;97.70;;;;;;4951769;28;20272;-63
2020/12/08 01:25:20;;;;;;;2.00;1.90;;;5.00;97.50;;;;;;4954553;28;20202;-62
2020/12/08 01:27:46;;;;;;;1.47;1.47;;;5.00;97.60;;;;;;4941323;29;20190;-62
2020/12/08 01:30:11;;;;;;;2.00;1.90;;;5.00;97.60;;;;;;4959828;28;20188;-62
2020/12/08 01:32:37;;;;;;;1.70;1.70;;;5.00;97.70;;;;;;4946744;28;20198;-62
2020/12/08 01:35:03;;;;;;;2.10;1.47;;;5.00;97.70;;;;;;4935909;28;20191;-62
2020/12/08 01:37:29;;;;;;;1.70;1.27;;;5.00;97.80;;;;;;4968879;28;20782;-62
2020/12/08 01:39:55;;;;;;;1.80;1.70;;;5.00;97.90;;;;;;4948035;28;20182;-62
2020/12/08 01:42:20;;;;;;;1.30;1.10;;;5.00;97.90;;;;;;4963301;28;20189;-62
2020/12/08 01:44:47;;;;;;;1.00;0.93;;;5.00;97.80;;;;;;4937929;28;20187;-62
2020/12/08 01:47:15;;;;;;;0.93;0.93;;;5.00;97.70;;;;;;4937077;28;20193;-62
2020/12/08 01:49:46;;;;;;;1.00;0.87;;;4.90;97.80;;;;;;4952000;28;20182;-62
2020/12/08 01:52:15;;;;;;;0.90;0.90;;;4.90;98.00;;;;;;4959201;28;20591;-62
2020/12/08 01:54:46;;;;;;;1.23;1.10;;;4.90;98.10;;;;;;4963673;28;20182;-62
2020/12/08 01:57:13;;;;;;;3.40;1.03;;;5.00;98.00;;;;;;4955442;28;20191;-62
2020/12/08 01:59:39;;;;;;;1.03;1.03;;;5.00;98.00;;;;;;4968491;28;20643;-62
2020/12/08 02:02:05;;;;;;;1.13;1.03;;;5.00;98.00;;;;;;4967302;28;20285;-62
2020/12/08 02:04:31;;;;;;;1.17;1.00;;;5.10;97.90;;;;;;4963174;28;20240;-63
2020/12/08 02:06:57;;;;;;;1.10;1.10;;;5.10;97.80;;;;;;4961835;28;20183;-62
2020/12/08 02:12:06;;;;;;;1.83;1.60;;;5.10;97.70;;;;;;4950626;28;20190;-61
2020/12/08 02:14:32;;;;;;;1.73;1.37;;;5.10;97.60;;;;;;4960126;28;20179;-61
2020/12/08 02:16:58;;;;;;;0.90;0.90;;;5.10;97.60;;;;;;4963888;28;20218;-61
2020/12/08 02:19:24;;;;;;;0.90;0.90;;;5.10;97.50;;;;;;4931574;29;20186;-63
2020/12/08 02:21:49;;;;;;;0.90;0.90;;;5.20;97.30;;;;;;4941857;28;20260;-61
2020/12/08 02:24:19;;;;;;;1.50;0.97;;;5.10;97.20;;;;;;4961292;28;20733;-61
2020/12/08 02:26:44;;;;;;;0.70;0.70;;;5.10;97.10;;;;;;4936679;29;20218;-63
2020/12/08 02:29:10;;;;;;;1.83;1.00;;;5.10;96.80;;;;;;4948764;29;20218;-62
2020/12/08 02:31:37;;;;;;;0.50;0.50;;;5.10;96.70;;;;;;4958823;28;20182;-61
2020/12/08 02:34:02;;;;;;;0.80;0.80;;;5.10;96.80;;;;;;4961858;28;21208;-62
2020/12/08 02:36:28;;;;;;;0.60;0.60;;;5.10;96.80;;;;;;4959791;28;20297;-62
2020/12/08 02:38:54;;;;;;;0.40;0.40;;;5.10;96.80;;;;;;4966014;28;20186;-61
2020/12/08 02:41:24;;;;;;;0.40;0.40;;;5.10;96.70;;;;;;4962491;28;20170;-62
2020/12/08 02:43:52;;;;;;;0.50;0.40;;;5.10;96.60;;;;;;4944022;28;20187;-62
2020/12/08 02:46:18;;;;;;;0.43;0.43;;;5.10;96.60;;;;;;4956687;28;20218;-62
2020/12/08 02:48:47;;;;;;;0.37;0.37;;;5.10;96.40;;;;;;4953340;28;20183;-62
2020/12/08 02:51:19;;;;;;;0.63;0.40;;;5.10;96.30;;;;;;4960499;28;20261;-62
2020/12/08 02:53:45;;;;;;;0.50;0.50;;;5.10;96.20;;;;;;4961651;28;20325;-62
2020/12/08 02:56:11;;;;;;;0.30;0.30;;;5.10;96.20;;;;;;4936359;28;20702;-62
2020/12/08 02:58:37;;;;;;;0.20;0.20;;;5.10;96.30;;;;;;4948235;29;20182;-62
2020/12/08 03:01:03;;;;;;;0.50;0.50;;;5.10;96.40;;;;;;4954554;28;20174;-62
2020/12/08 03:03:30;;;;;;;0.40;0.40;;;5.10;96.40;;;;;;4967330;28;20182;-62
2020/12/08 03:05:55;;;;;;;0.43;0.43;;;5.00;96.40;;;;;;4942595;28;20276;-62
2020/12/08 03:08:21;;;;;;;0.50;0.50;;;5.00;96.40;;;;;;4950122;28;20588;-61
2020/12/08 03:10:47;;;;;;;0.40;0.40;;;5.00;96.50;;;;;;4951508;28;20285;-61
2020/12/08 03:13:13;;;;;;;0.63;0.60;;;5.00;96.60;;;;;;4964329;28;20595;-61
2020/12/08 03:15:39;;;;;;;0.70;0.70;;;5.00;96.60;;;;;;4957172;28;20210;-61
2020/12/08 03:18:04;;;;;;;0.80;0.80;;;5.10;96.30;;;;;;4965000;28;20183;-61
2020/12/08 03:20:30;;;;;;;0.93;0.80;;;5.10;96.20;;;;;;4961170;28;20175;-61
2020/12/08 03:22:56;;;;;;;1.00;1.00;;;5.00;96.10;;;;;;4949068;28;20195;-61
2020/12/08 03:25:21;;;;;;;0.83;0.80;;;5.00;96.00;;;;;;4956409;28;21637;-61
2020/12/08 03:27:47;;;;;;;0.87;0.87;;;5.00;96.20;;;;;;4967309;28;20281;-61
2020/12/08 03:30:13;;;;;;;0.53;0.30;;;5.00;96.20;;;;;;4946555;28;20199;-61
2020/12/08 03:32:38;;;;;;;0.43;0.43;;;5.00;96.40;;;;;;4949657;28;20514;-62
2020/12/08 03:35:04;;;;;;;0.63;0.63;;;5.00;96.60;;;;;;4961783;28;20731;-62
2020/12/08 03:37:30;;;;;;;0.63;0.63;;;5.10;96.50;;;;;;4963296;28;20185;-62
2020/12/08 03:39:55;;;;;;;1.50;0.70;;;5.00;96.50;;;;;;4965796;28;20178;-61
2020/12/08 03:42:21;;;;;;;0.83;0.83;;;5.10;96.50;;;;;;4965768;28;20605;-62
2020/12/08 03:44:47;;;;;;;0.90;0.90;;;5.10;96.60;;;;;;4958648;28;20233;-61
2020/12/08 03:47:13;;;;;;;0.80;0.80;;;5.00;96.60;;;;;;4955696;28;20191;-61
2020/12/08 03:49:38;;;;;;;0.70;0.70;;;5.10;96.70;;;;;;4948964;28;20187;-61
2020/12/08 03:52:04;;;;;;;1.20;1.20;;;5.10;96.60;;;;;;4935402;29;20186;-61
2020/12/08 03:54:30;;;;;;;0.77;0.77;;;5.10;96.50;;;;;;4938712;28;20322;-62
2020/12/08 03:56:55;;;;;;;0.70;0.70;;;5.10;96.60;;;;;;4952304;28;20577;-62
2020/12/08 03:59:21;;;;;;;1.00;1.00;;;5.10;96.60;;;;;;4930061;29;20183;-61
2020/12/08 04:01:51;;;;;;;1.37;1.37;;;5.10;96.60;;;;;;4959585;28;20236;-61
2020/12/08 04:04:17;;;;;;;1.30;1.30;;;5.10;96.70;;;;;;4957649;28;20194;-61
2020/12/08 04:06:43;;;;;;;1.13;1.10;;;5.10;96.70;;;;;;4958180;28;20651;-61
2020/12/08 04:09:08;;;;;;;1.30;1.30;;;5.10;96.80;;;;;;4966193;28;20217;-61
2020/12/08 04:11:34;;;;;;;1.60;1.50;;;5.10;96.70;;;;;;4958850;28;20733;-61
2020/12/08 04:14:01;;;;;;;1.17;1.17;;;5.10;96.70;;;;;;4945674;28;20747;-62
2020/12/08 04:16:31;;;;;;;1.37;1.20;;;5.10;96.80;;;;;;4956650;28;20998;-63
2020/12/08 04:18:58;;;;;;;1.30;1.30;;;5.10;96.80;;;;;;4960972;28;20190;-62
2020/12/08 04:21:28;;;;;;;1.80;1.70;;;5.10;96.80;;;;;;4957717;28;20189;-62
2020/12/08 04:23:59;;;;;;;1.20;1.20;;;5.10;96.70;;;;;;4960767;28;20190;-62
2020/12/08 04:26:25;;;;;;;1.70;1.70;;;5.10;96.80;;;;;;4940858;28;20210;-62
2020/12/08 04:28:51;;;;;;;1.40;1.40;;;5.10;96.80;;;;;;4948640;28;20332;-62
2020/12/08 04:31:17;;;;;;;1.10;1.10;;;5.10;96.70;;;;;;4956936;28;20219;-62
2020/12/08 04:33:43;;;;;;;2.87;1.67;;;5.10;96.70;;;;;;4934719;28;20798;-62
2020/12/08 04:36:13;;;;;;;2.03;1.70;;;5.10;96.60;;;;;;4959247;28;20294;-61
2020/12/08 04:38:40;;;;;;;1.20;1.20;;;5.00;96.40;;;;;;4935616;29;20175;-62
2020/12/08 04:41:06;;;;;;;2.20;1.80;;;5.00;96.60;;;;;;4930500;29;20237;-62
2020/12/08 04:43:32;;;;;;;1.93;1.80;;;5.00;96.50;;;;;;4960936;28;20202;-62
2020/12/08 04:45:58;;;;;;;1.97;1.87;;;5.00;96.50;;;;;;4938568;28;20966;-62
2020/12/08 04:48:24;;;;;;;1.20;1.10;;;4.90;96.60;;;;;;4953986;28;20183;-62
2020/12/08 04:50:50;;;;;;;1.40;1.40;;;4.90;96.70;;;;;;4936186;28;20214;-62
2020/12/08 04:53:16;;;;;;;1.30;1.30;;;5.00;96.60;;;;;;4958983;28;20274;-62
2020/12/08 04:55:42;;;;;;;3.37;1.23;;;5.00;96.70;;;;;;4953354;28;21253;-62
2020/12/08 04:58:09;;;;;;;1.93;1.60;;;5.00;96.80;;;;;;4939745;29;20187;-62
2020/12/08 05:00:44;;;;;;;2.30;1.63;;;5.00;96.80;;;;;;4958768;28;20177;-63
2020/12/08 05:03:11;;;;;;;1.07;1.07;;;5.00;96.80;;;;;;4957318;28;20750;-63
2020/12/08 05:05:43;;;;;;;1.80;1.70;;;5.00;97.00;;;;;;4955808;28;20183;-62
2020/12/08 05:08:13;;;;;;;2.83;2.07;;;5.00;97.00;;;;;;4959906;28;20175;-61
2020/12/08 05:10:40;;;;;;;1.93;1.83;;;5.00;96.80;;;;;;4962464;28;20187;-61
2020/12/08 05:13:19;;;;;;;2.03;1.80;;;5.00;96.70;;;;;;4950702;28;20528;-61
2020/12/08 05:16:05;;;;;;;1.63;1.53;;;5.10;96.70;;;;;;4959509;28;20222;-61
2020/12/08 05:18:33;;;;;;;1.67;1.60;;;5.10;96.60;;;;;;4960989;28;20317;-61
2020/12/08 05:21:11;;;;;;;2.00;1.80;;;5.00;97.00;;;;;;4936914;29;20874;-62
2020/12/08 05:23:41;;;;;;;2.37;2.27;;;5.10;96.80;;;;;;4960452;28;20260;-62
2020/12/08 05:26:08;;;;;;;1.80;1.70;;;5.10;96.70;;;;;;4954519;28;20190;-61
2020/12/08 05:28:34;;;;;;;2.50;2.30;;;5.10;96.60;;;;;;4932792;29;21115;-63
2020/12/08 05:31:00;;;;;;;2.40;2.20;;;5.00;96.60;;;;;;4959277;28;20178;-62
2020/12/08 05:33:26;;;;;;;2.57;2.37;;;5.00;96.60;;;;;;4965565;28;20691;-63
2020/12/08 05:35:55;;;;;;;2.43;2.27;;;5.00;96.70;;;;;;4941188;28;20210;-63
2020/12/08 05:38:25;;;;;;;2.27;2.07;;;5.00;96.80;;;;;;4957206;28;20198;-62
2020/12/08 05:40:51;;;;;;;2.17;2.07;;;5.00;96.80;;;;;;4952849;28;20183;-62
2020/12/08 05:43:20;;;;;;;3.40;3.10;;;5.00;97.00;;;;;;4962570;28;21036;-63
2020/12/08 05:45:49;;;;;;;3.03;2.63;;;4.90;97.00;;;;;;4957309;28;20190;-63
2020/12/08 05:48:21;;;;;;;3.43;3.13;;;4.90;97.10;;;;;;4968541;28;20174;-63
2020/12/08 05:50:47;;;;;;;5.13;3.77;;;5.00;97.30;;;;;;4946232;28;20768;-63
2020/12/08 05:53:18;;;;;;;4.30;3.77;;;4.90;97.40;;;;;;4951382;28;20179;-62
2020/12/08 05:55:44;;;;;;;7.67;5.13;;;4.90;97.40;;;;;;4966033;28;20232;-62
2020/12/08 05:58:12;;;;;;;7.23;5.53;;;4.90;97.60;;;;;;4948345;28;20218;-63
2020/12/08 06:00:38;;;;;;;5.77;5.00;;;4.90;97.50;;;;;;4945862;28;20190;-63
2020/12/08 06:03:11;;;;;;;5.33;4.83;;;4.90;97.50;;;;;;4962975;28;20205;-62
2020/12/08 06:05:38;;;;;;;8.47;5.50;;;4.90;97.40;;;;;;4958999;28;20186;-62
2020/12/08 06:08:20;;;;;;;5.47;4.07;;;5.00;97.30;;;;;;4945836;28;20201;-62
2020/12/08 06:10:50;;;;;;;6.73;4.70;;;5.00;97.10;;;;;;4961290;28;20193;-62
2020/12/08 06:13:29;;;;;;;5.83;5.17;;;5.00;97.20;;;;;;4958875;28;20605;-62
2020/12/08 06:15:58;;;;;;;8.07;5.07;;;5.00;97.20;;;;;;4964376;28;20694;-62
2020/12/08 06:18:42;;;;;;;4.17;3.77;;;5.10;97.30;;;;;;4949303;28;20625;-62
2020/12/08 06:21:24;;;;;;;6.07;4.67;;;5.10;97.10;;;;;;4965194;28;20324;-62
2020/12/08 06:23:52;;;;;;;5.63;4.50;;;5.20;97.20;;;;;;4960683;28;20218;-62
2020/12/08 06:26:22;;;;;;;8.27;4.13;;;5.20;97.20;;;;;;4963216;28;20282;-63
2020/12/08 06:28:47;;;;;;;5.90;4.67;;;5.30;97.00;;;;;;4963651;28;20285;-62
2020/12/08 06:31:13;;;;;;;6.20;5.30;;;5.30;96.90;;;;;;4965038;28;20293;-62
2020/12/08 06:34:05;;;;;;;8.43;5.97;;;5.30;96.70;;;;;;4947621;28;20729;-62
2020/12/08 06:36:31;;;;;;;8.27;5.33;;;5.30;96.60;;;;;;4947784;28;20812;-63
2020/12/08 06:39:07;;;;;;;6.87;5.23;;;5.30;96.80;;;;;;4966571;28;20183;-62
2020/12/08 06:41:38;;;;;;;5.03;4.40;;;5.40;96.80;;;;;;4962550;28;20563;-63
2020/12/08 06:44:05;;;;;;;3.87;3.57;;;5.40;96.80;;;;;;4966524;28;20179;-63
2020/12/08 06:46:31;;;;;;;5.40;3.87;;;5.40;96.80;;;;;;4947038;28;20667;-62
2020/12/08 06:49:07;;;;;;;4.20;3.40;;;5.40;96.90;;;;;;4964263;28;20191;-63
2020/12/08 06:51:34;;;;;;;3.87;2.97;;;5.40;96.80;;;;;;4963906;28;20591;-63
2020/12/08 06:54:11;;;;;;;3.97;3.57;;;5.40;96.70;;;;;;4965255;28;21010;-62
2020/12/08 06:56:37;;;;;;;3.43;3.23;;;5.40;96.30;;;;;;4947492;28;20202;-61
2020/12/08 06:59:03;;;;;;;3.20;3.00;;;5.40;96.30;;;;;;4966876;28;20182;-62
2020/12/08 07:01:29;;;;;;;3.40;3.20;;;5.40;96.40;;;;;;4966483;28;20698;-61
2020/12/08 07:03:55;;;;;;;3.90;3.40;;;5.40;96.50;;;;;;4966075;28;20182;-61
2020/12/08 07:06:21;;;;;;;7.67;3.33;;;5.40;96.40;;;;;;4964532;28;20190;-61
2020/12/08 07:08:50;;;;;;;2.97;2.77;;;5.40;96.50;;;;;;4954733;28;20836;-62
2020/12/08 07:11:24;;;;;;;3.37;3.10;;;5.40;96.70;;;;;;4966186;28;20198;-62
2020/12/08 07:14:06;;;;;;;2.80;2.60;;;5.50;96.70;;;;;;4962633;28;20175;-62
2020/12/08 07:16:34;;;;;;;2.90;2.70;;;5.50;96.40;;;;;;4962502;28;20264;-62
2020/12/08 07:19:07;;;;;;;3.43;3.13;;;5.50;96.40;;;;;;4963913;28;20277;-62
2020/12/08 07:21:33;;;;;;;3.17;2.97;;;5.50;96.40;;;;;;4947676;28;20217;-62
2020/12/08 07:23:59;;;;;;;5.07;3.00;;;5.60;96.40;;;;;;4966168;28;20730;-62
2020/12/08 07:26:29;;;;;;;2.87;2.67;;;5.60;96.10;;;;;;4962958;28;20191;-62
2020/12/08 07:28:57;;;;;;;3.63;3.33;;;5.60;96.40;;;;;;4942038;28;20273;-61
2020/12/08 07:31:29;;;;;;;4.83;4.33;;;5.70;96.70;;;;;;4965524;28;20179;-62
2020/12/08 07:33:55;;;;;;;4.60;4.17;;;5.70;96.80;;;;;;4942503;28;20741;-60
2020/12/08 07:36:29;;;;;;;5.33;4.93;;;5.80;96.80;;;;;;4965724;28;20288;-62
2020/12/08 07:38:57;;;;;;;5.53;5.07;;;5.90;96.60;;;;;;4964588;28;20205;-62
2020/12/08 07:41:26;;;;;;;10.37;6.70;;;6.00;96.60;;;;;;4963183;28;20551;-60
2020/12/08 07:43:53;;;;;;;8.73;6.20;;;6.10;96.40;;;;;;4965865;28;20190;-60
2020/12/08 07:46:22;;;;;;;8.30;5.90;;;6.10;96.40;;;;;;4954773;28;20183;-62
2020/12/08 07:49:01;;;;;;;6.37;5.70;;;6.20;95.90;;;;;;4963905;28;20186;-62
2020/12/08 07:51:29;;;;;;;7.67;6.13;;;6.30;95.50;;;;;;4960554;28;20310;-62
2020/12/08 07:53:55;;;;;;;7.80;6.30;;;6.30;95.70;;;;;;4965464;28;20186;-60
2020/12/08 07:56:25;;;;;;;10.90;6.90;;;6.40;95.60;;;;;;4960518;28;20213;-62
2020/12/08 07:58:51;;;;;;;14.40;8.33;;;6.40;95.10;;;;;;4946132;28;20234;-66
2020/12/08 08:01:16;;;;;;;13.47;9.00;;;6.40;94.30;;;;;;4959634;28;20178;-62
2020/12/08 08:03:42;;;;;;;11.67;8.07;;;6.40;94.50;;;;;;4964584;28;20209;-63
2020/12/08 08:06:13;;;;;;;12.17;8.17;;;6.40;94.10;;;;;;4939515;28;20195;-65
2020/12/08 08:08:38;;;;;;;13.07;8.40;;;6.40;94.40;;;;;;4972616;28;20249;-61
2020/12/08 08:11:04;;;;;;;13.20;8.33;;;6.40;94.90;;;;;;4962798;28;20194;-62
2020/12/08 08:13:30;;;;;;;14.53;8.67;;;6.40;95.20;;;;;;4964663;28;20190;-62
2020/12/08 08:15:55;;;;;;;10.43;7.80;;;6.50;95.00;;;;;;4965168;28;20206;-61
2020/12/08 08:18:21;;;;;;;17.40;8.90;;;6.50;95.00;;;;;;4965311;28;20186;-61
2020/12/08 08:20:47;;;;;;;14.40;9.20;;;6.60;94.50;;;;;;4963106;28;20190;-61
2020/12/08 08:23:12;;;;;;;13.63;9.07;;;6.60;94.80;;;;;;4963471;28;20205;-61
2020/12/08 08:25:38;;;;;;;14.87;9.73;;;6.60;95.00;;;;;;4965092;28;20634;-62
2020/12/08 08:28:04;;;;;;;17.03;9.83;;;6.70;94.90;;;;;;4964035;28;20193;-62
2020/12/08 08:30:29;;;;;;;17.23;11.00;;;6.70;95.00;;;;;;4963430;28;20754;-61
2020/12/08 08:32:55;;;;;;;18.07;11.83;;;6.80;94.80;;;;;;4933147;28;20182;-61
2020/12/08 08:35:21;;;;;;;17.90;11.33;;;6.90;94.80;;;;;;4936238;28;20737;-60
2020/12/08 08:37:47;;;;;;;17.40;11.57;;;6.90;94.90;;;;;;4960581;28;20194;-60
2020/12/08 08:40:13;;;;;;;19.00;12.50;;;7.00;94.80;;;;;;4962899;28;20182;-61
2020/12/08 08:42:39;;;;;;;17.47;11.60;;;7.10;94.10;;;;;;4945118;28;20245;-62
2020/12/08 08:45:04;;;;;;;19.43;12.07;;;7.10;94.20;;;;;;4945794;28;20285;-60
2020/12/08 08:47:30;;;;;;;20.73;12.63;;;7.20;94.30;;;;;;4945501;28;20952;-61
2020/12/08 08:49:56;;;;;;;19.17;12.43;;;7.30;94.20;;;;;;4963614;28;20186;-62
2020/12/08 08:52:21;;;;;;;24.80;13.73;;;7.30;93.50;;;;;;4962101;28;20214;-62
2020/12/08 08:54:47;;;;;;;18.93;12.80;;;7.40;93.00;;;;;;4964560;28;20198;-61
2020/12/08 08:57:13;;;;;;;23.37;13.67;;;7.40;93.30;;;;;;4963320;28;20249;-62
2020/12/08 08:59:38;;;;;;;25.20;14.13;;;7.40;91.80;;;;;;4964021;28;20186;-61
2020/12/08 09:02:04;;;;;;;24.13;14.37;;;7.50;92.10;;;;;;4963300;28;20185;-61
2020/12/08 09:04:30;;;;;;;29.20;13.33;;;7.50;92.40;;;;;;4962391;28;20194;-61
2020/12/08 09:06:56;;;;;;;22.17;13.33;;;7.50;92.30;;;;;;4959896;28;20191;-61
2020/12/08 09:09:21;;;;;;;24.03;13.13;;;7.50;92.50;;;;;;4959027;28;20197;-61
2020/12/08 09:11:47;;;;;;;31.67;14.73;;;7.60;92.50;;;;;;4955264;28;20195;-61
2020/12/08 09:14:13;;;;;;;21.70;14.30;;;7.60;92.90;;;;;;4961760;28;20326;-60
2020/12/08 09:16:40;;;;;;;22.57;13.33;;;7.70;92.70;;;;;;4945595;28;20206;-60
2020/12/08 09:19:05;;;;;;;20.57;13.40;;;7.80;92.50;;;;;;4960225;28;20194;-60
2020/12/08 09:21:31;;;;;;;25.70;14.70;;;7.80;92.20;;;;;;4959108;28;20195;-61
2020/12/08 09:23:57;;;;;;;25.87;14.67;;;7.80;91.90;;;;;;4963050;28;20225;-61
2020/12/08 09:26:23;;;;;;;21.13;13.37;;;7.90;91.70;;;;;;4944591;28;20281;-61
2020/12/08 09:28:49;;;;;;;23.20;14.23;;;7.90;92.00;;;;;;4960966;28;20277;-61
2020/12/08 09:31:16;;;;;;;24.53;14.67;;;7.90;92.10;;;;;;4960695;28;20188;-61
2020/12/08 09:33:42;;;;;;;23.50;14.13;;;8.00;92.20;;;;;;4960775;28;20595;-61
2020/12/08 09:36:08;;;;;;;23.37;14.10;;;8.00;92.00;;;;;;4963532;28;20272;-61
2020/12/08 09:38:34;;;;;;;23.37;13.20;;;8.00;92.00;;;;;;4962320;28;20722;-60
2020/12/08 09:40:59;;;;;;;23.80;13.97;;;8.10;91.90;;;;;;4960345;28;20190;-61
2020/12/08 09:43:25;;;;;;;23.90;14.33;;;8.10;91.10;;;;;;4958961;28;20206;-60
2020/12/08 09:45:51;;;;;;;28.30;15.40;;;8.10;90.60;;;;;;4964767;28;20186;-61
2020/12/08 09:48:17;;;;;;;27.57;15.30;;;8.00;89.10;;;;;;4964456;28;20312;-60
2020/12/08 09:50:42;;;;;;;24.37;15.53;;;8.00;89.60;;;;;;4959019;28;20187;-60
2020/12/08 09:53:08;;;;;;;28.13;15.80;;;8.00;90.50;;;;;;4961477;28;20727;-60
2020/12/08 09:55:34;;;;;;;24.17;15.33;;;7.90;89.50;;;;;;4942005;28;20604;-60
2020/12/08 09:58:00;;;;;;;23.93;14.97;;;7.90;90.00;;;;;;4945312;28;20214;-61
2020/12/08 10:00:25;;;;;;;27.93;14.13;;;7.90;90.00;;;;;;4963969;28;20281;-61
2020/12/08 10:02:51;;;;;;;26.87;14.37;;;7.90;90.80;;;;;;4963860;28;20225;-61
2020/12/08 10:05:17;;;;;;;28.20;15.77;;;7.90;91.10;;;;;;4967329;28;20190;-61
2020/12/08 10:07:43;;;;;;;24.70;15.13;;;8.00;90.90;;;;;;4949294;28;20182;-61
2020/12/08 10:10:09;;;;;;;29.70;16.03;;;8.00;90.20;;;;;;4965406;28;20186;-61
2020/12/08 10:12:35;;;;;;;29.43;15.90;;;8.00;90.80;;;;;;4962930;28;20254;-61
2020/12/08 10:15:01;;;;;;;28.47;15.03;;;7.90;90.10;;;;;;4966480;28;20190;-61
2020/12/08 10:17:26;;;;;;;27.30;16.17;;;7.90;89.50;;;;;;4959076;28;20230;-60
2020/12/08 10:19:52;;;;;;;28.20;16.10;;;7.80;89.30;;;;;;4966688;28;20234;-60
2020/12/08 10:22:18;;;;;;;26.43;15.83;;;7.70;89.20;;;;;;4955913;28;20187;-61
2020/12/08 10:24:43;;;;;;;38.30;17.63;;;7.50;89.30;;;;;;4944220;28;20202;-61
2020/12/08 10:27:09;;;;;;;25.53;15.17;;;7.40;89.90;;;;;;4949451;28;20241;-60
2020/12/08 10:29:36;;;;;;;30.60;16.40;;;7.40;90.30;;;;;;4966043;28;20190;-62
2020/12/08 10:32:02;;;;;;;27.07;16.07;;;7.50;90.70;;;;;;4944050;29;20218;-61
2020/12/08 10:34:27;;;;;;;31.13;16.10;;;7.60;91.10;;;;;;4964284;28;20218;-61
2020/12/08 10:36:53;;;;;;;25.53;15.63;;;7.70;91.00;;;;;;4962320;28;20305;-62
2020/12/08 10:39:19;;;;;;;30.13;15.53;;;7.80;90.80;;;;;;4966572;28;20186;-61
2020/12/08 10:41:45;;;;;;;28.20;16.50;;;7.90;90.80;;;;;;4948874;28;20205;-62
2020/12/08 10:44:10;;;;;;;26.83;14.90;;;8.00;90.90;;;;;;4960395;28;20183;-61
2020/12/08 10:46:37;;;;;;;28.47;16.33;;;8.10;90.90;;;;;;4962457;28;20590;-61
2020/12/08 10:49:06;;;;;;;29.13;16.77;;;8.20;90.50;;;;;;4958365;28;20265;-62
2020/12/08 10:51:31;;;;;;;30.47;16.87;;;8.30;89.90;;;;;;4938361;29;20210;-61
2020/12/08 10:53:57;;;;;;;32.33;16.97;;;8.30;90.30;;;;;;4960123;28;20186;-61
2020/12/08 10:56:24;;;;;;;28.33;15.83;;;8.30;88.90;;;;;;4962651;28;20221;-60
2020/12/08 10:58:51;;;;;;;29.60;15.87;;;8.30;88.40;;;;;;4964412;28;20179;-61
2020/12/08 11:01:18;;;;;;;25.23;15.30;;;8.20;88.60;;;;;;4964720;28;20178;-60
2020/12/08 11:03:45;;;;;;;29.13;16.03;;;8.20;89.10;;;;;;4955100;28;20632;-62
2020/12/08 11:06:11;;;;;;;25.57;16.33;;;8.20;89.90;;;;;;4945606;28;20183;-61
2020/12/08 11:08:37;;;;;;;23.83;15.13;;;8.20;90.00;;;;;;4952969;28;20225;-61
2020/12/08 11:11:05;;;;;;;25.13;15.73;;;8.30;90.00;;;;;;4966180;28;20265;-61
2020/12/08 11:13:31;;;;;;;30.10;16.10;;;8.30;90.00;;;;;;4959940;28;20940;-62
2020/12/08 11:15:57;;;;;;;30.03;16.17;;;8.30;90.00;;;;;;4966170;28;20293;-57
2020/12/08 11:18:23;;;;;;;29.40;16.67;;;8.40;89.60;;;;;;4965357;28;20202;-63
2020/12/08 11:20:48;;;;;;;35.10;15.87;;;8.40;89.30;;;;;;4959145;28;20263;-60
2020/12/08 11:23:15;;;;;;;32.25;16.35;;;8.40;89.80;;;;;;4965686;28;20201;-63
2020/12/08 11:25:40;;;;;;;31.13;16.13;;;8.40;90.00;;;;;;4960076;28;20187;-63
2020/12/08 11:28:06;;;;;;;29.70;16.80;;;8.40;90.00;;;;;;4965736;28;20186;-62
2020/12/08 11:30:32;;;;;;;26.10;16.23;;;8.50;89.20;;;;;;4944779;28;20297;-62
2020/12/08 11:32:58;;;;;;;28.00;16.47;;;8.50;89.20;;;;;;4961642;28;20187;-62
2020/12/08 11:35:24;;;;;;;26.53;15.80;;;8.60;89.10;;;;;;4963594;28;21100;-62
2020/12/08 11:37:49;;;;;;;25.27;15.77;;;8.60;89.10;;;;;;4960991;28;20273;-62
2020/12/08 11:40:16;;;;;;;25.25;14.73;;;8.60;88.70;;;;;;4962681;28;20933;-63
2020/12/08 11:42:42;;;;;;;28.37;16.13;;;8.60;88.60;;;;;;4949169;28;20294;-63
2020/12/08 11:45:12;;;;;;;25.73;14.73;;;8.60;87.70;;;;;;4956775;28;20218;-62
2020/12/08 11:47:38;;;;;;;28.50;15.30;;;8.60;87.80;;;;;;4939890;29;20895;-62
2020/12/08 11:50:04;;;;;;;29.55;16.58;;;8.50;88.00;;;;;;4951433;28;20868;-63
2020/12/08 11:52:29;;;;;;;25.47;15.60;;;8.40;88.70;;;;;;4945610;28;20278;-63
2020/12/08 11:54:55;;;;;;;23.08;14.38;;;8.40;89.10;;;;;;4961446;28;20256;-63
2020/12/08 11:57:21;;;;;;;22.30;13.57;;;8.40;89.10;;;;;;4946998;28;20252;-63
2020/12/08 11:59:46;;;;;;;27.40;13.90;;;8.40;89.50;;;;;;4963542;28;20184;-63
2020/12/08 12:02:12;;;;;;;26.23;15.15;;;8.50;90.00;;;;;;4964756;28;20197;-63
2020/12/08 12:04:39;;;;;;;26.10;15.10;;;8.60;89.40;;;;;;4964471;28;20178;-62
2020/12/08 12:07:05;;;;;;;24.80;14.00;;;8.70;89.50;;;;;;4964542;28;20931;-62
2020/12/08 12:09:31;;;;;;;28.20;15.00;;;8.90;89.40;;;;;;4950159;28;20197;-62
2020/12/08 12:11:58;;;;;;;24.13;14.43;;;9.10;89.50;;;;;;4959035;28;20187;-64
2020/12/08 12:14:24;;;;;;;26.30;15.25;;;9.20;88.50;;;;;;4957864;28;20590;-62
2020/12/08 12:16:50;;;;;;;33.37;15.10;;;9.30;88.60;;;;;;4944546;29;20225;-62
2020/12/08 12:19:16;;;;;;;26.55;15.38;;;9.40;88.40;;;;;;4950732;28;20700;-62
2020/12/08 12:21:41;;;;;;;23.63;14.20;;;9.40;88.00;;;;;;4947790;28;20214;-62
2020/12/08 12:24:07;;;;;;;25.92;14.55;;;9.40;86.80;;;;;;4949153;28;20291;-63
2020/12/08 12:26:33;;;;;;;27.08;15.23;;;9.40;86.10;;;;;;4964268;28;20190;-65
2020/12/08 12:28:58;;;;;;;25.88;14.57;;;9.30;86.40;;;;;;4956068;28;20260;-64
2020/12/08 12:31:24;;;;;;;23.30;14.48;;;9.20;86.40;;;;;;4945097;29;21028;-63
2020/12/08 12:33:50;;;;;;;24.50;15.00;;;9.20;86.60;;;;;;4962709;28;20284;-63
2020/12/08 12:36:16;;;;;;;23.67;14.10;;;9.10;87.90;;;;;;4947142;28;20600;-64
2020/12/08 12:38:41;;;;;;;24.60;14.18;;;9.10;88.00;;;;;;4965626;28;20190;-63
2020/12/08 12:41:07;;;;;;;27.20;14.68;;;9.10;88.40;;;;;;4959326;28;20191;-64
2020/12/08 12:43:33;;;;;;;23.30;14.02;;;9.20;88.00;;;;;;4959064;28;20385;-63
2020/12/08 12:45:58;;;;;;;21.52;13.55;;;9.20;87.80;;;;;;4956963;28;20640;-63
2020/12/08 12:48:24;;;;;;;23.90;14.63;;;9.20;87.20;;;;;;4964817;28;20860;-63
2020/12/08 12:50:50;;;;;;;22.48;13.77;;;9.10;86.80;;;;;;4957501;28;20674;-62
2020/12/08 12:53:16;;;;;;;18.47;12.90;;;9.10;86.40;;;;;;4956951;28;20218;-63